Time;durP1;ratioP1;P1;durP2;ratioP2;P2;SDS_P1;SDS_P2;PMS_P1;PMS_P2;Temp;Humidity;BMP_temperature;BMP_pressure;BME280_temperature;BME280_humidity;BME280_pressure;Samples;Min_cycle;Max_cycle;Signal;HPM_P1;HPM_P2
2023/04/11 00:00:51;;;;;;;10.88;6.20;;;;;;;7.11;57.46;99748.89;1582969;88;21029;-66
2023/04/11 00:03:18;;;;;;;8.73;5.80;;;;;;;7.10;57.27;99744.61;1619795;87;21033;-62
2023/04/11 00:05:48;;;;;;;8.43;5.65;;;;;;;7.10;57.27;99744.61;1616147;87;21002;-61
2023/04/11 00:08:14;;;;;;;7.72;5.67;;;;;;;7.14;57.00;99747.48;1615463;87;21040;-62
2023/04/11 00:10:41;;;;;;;11.20;5.62;;;;;;;7.17;57.05;99746.12;1615828;87;20987;-61
2023/04/11 00:13:09;;;;;;;9.10;6.20;;;;;;;7.19;57.06;99744.30;1613316;87;21526;-62
2023/04/11 00:15:36;;;;;;;8.85;6.85;;;;;;;7.20;57.42;99738.22;1625473;86;21019;-62
2023/04/11 00:18:02;;;;;;;7.55;5.55;;;;;;;7.23;57.67;99735.52;1629458;86;21472;-65
2023/04/11 00:20:29;;;;;;;10.05;6.53;;;;;;;7.24;57.97;99732.02;1623776;86;21025;-63
2023/04/11 00:22:57;;;;;;;9.10;6.03;;;;;;;7.23;58.07;99732.92;1620832;87;21023;-61
2023/04/11 00:25:23;;;;;;;9.48;6.55;;;;;;;7.23;57.74;99722.99;1613867;87;21505;-62
2023/04/11 00:27:50;;;;;;;9.95;6.72;;;;;;;7.23;57.48;99717.34;1617254;87;21160;-62
2023/04/11 00:30:18;;;;;;;8.95;7.03;;;;;;;7.24;57.67;99719.03;1616906;86;21065;-65
2023/04/11 00:32:46;;;;;;;10.58;6.85;;;;;;;7.23;57.84;99710.85;1635769;85;21723;-64
2023/04/11 00:35:12;;;;;;;12.55;7.25;;;;;;;7.18;57.90;99707.55;1641725;85;20971;-62
2023/04/11 00:37:42;;;;;;;9.58;6.72;;;;;;;7.17;57.71;99704.57;1644450;85;21053;-62
2023/04/11 00:40:07;;;;;;;16.52;7.15;;;;;;;7.15;57.55;99698.57;1641266;85;21500;-66
2023/04/11 00:42:34;;;;;;;10.95;7.10;;;;;;;7.13;57.85;99693.88;1641562;85;21104;-62
2023/04/11 00:45:00;;;;;;;9.80;6.42;;;;;;;7.11;58.31;99694.36;1644393;85;21104;-62
2023/04/11 00:47:28;;;;;;;9.28;5.95;;;;;;;7.10;58.29;99686.19;1643019;85;21616;-62
2023/04/11 00:49:55;;;;;;;12.13;6.53;;;;;;;7.07;58.22;99682.41;1641475;85;21022;-62
2023/04/11 00:52:21;;;;;;;11.80;7.10;;;;;;;7.04;57.84;99674.72;1644789;85;20991;-62
2023/04/11 00:54:47;;;;;;;8.90;6.17;;;;;;;7.01;57.67;99685.20;1646702;85;20990;-62
2023/04/11 00:57:14;;;;;;;12.53;7.78;;;;;;;6.99;58.32;99676.61;1641130;85;21040;-65
2023/04/11 00:59:43;;;;;;;9.93;6.83;;;;;;;6.95;58.47;99668.09;1642341;85;21010;-63
2023/04/11 01:02:10;;;;;;;11.10;6.95;;;;;;;6.94;58.37;99662.02;1646251;85;21468;-62
2023/04/11 01:04:36;;;;;;;10.90;7.12;;;;;;;6.91;59.29;99667.32;1642820;85;20954;-62
2023/04/11 01:07:04;;;;;;;11.95;7.03;;;;;;;6.89;59.50;99663.95;1643302;85;21039;-62
2023/04/11 01:09:32;;;;;;;12.10;7.25;;;;;;;6.88;59.14;99655.74;1640895;85;21085;-62
2023/04/11 01:12:03;;;;;;;10.35;7.58;;;;;;;6.85;60.40;99649.36;1644364;85;21024;-61
2023/04/11 01:14:29;;;;;;;10.10;6.85;;;;;;;6.83;58.61;99645.95;1642851;85;21593;-64
2023/04/11 01:16:56;;;;;;;9.48;6.62;;;;;;;6.78;58.58;99645.28;1644685;85;20983;-62
2023/04/11 01:19:28;;;;;;;10.70;6.85;;;;;;;6.75;58.39;99647.98;1643405;85;21026;-62
2023/04/11 01:21:57;;;;;;;11.43;7.37;;;;;;;6.71;58.39;99643.78;1644180;85;21545;-63
2023/04/11 01:24:23;;;;;;;8.78;6.47;;;;;;;6.66;58.46;99648.27;1647918;85;21019;-62
2023/04/11 01:26:49;;;;;;;9.18;6.42;;;;;;;6.60;58.56;99640.69;1648532;85;21068;-62
2023/04/11 01:29:17;;;;;;;12.25;7.37;;;;;;;6.58;58.50;99640.75;1642980;86;21037;-62
2023/04/11 01:31:44;;;;;;;9.53;6.75;;;;;;;6.56;58.41;99631.31;1642969;85;21042;-62
2023/04/11 01:34:13;;;;;;;10.53;7.45;;;;;;;6.53;58.46;99629.67;1637317;85;21719;-62
2023/04/11 01:36:41;;;;;;;12.75;7.67;;;;;;;6.51;58.59;99634.05;1638549;85;21131;-62
2023/04/11 01:39:07;;;;;;;11.22;6.65;;;;;;;6.44;59.16;99633.83;1645016;84;21454;-65
2023/04/11 01:41:34;;;;;;;11.43;7.10;;;;;;;6.42;58.69;99635.19;1644798;85;21034;-62
2023/04/11 01:44:04;;;;;;;7.53;6.22;;;;;;;6.41;58.73;99628.32;1645767;85;21533;-64
2023/04/11 01:46:31;;;;;;;8.45;6.20;;;;;;;6.39;58.49;99627.52;1643468;85;21066;-62
2023/04/11 01:49:00;;;;;;;8.75;6.30;;;;;;;6.35;58.53;99620.70;1642681;85;20960;-62
2023/04/11 01:51:26;;;;;;;10.72;6.62;;;;;;;6.28;58.49;99615.33;1641166;85;21061;-63
2023/04/11 01:53:52;;;;;;;8.35;6.42;;;;;;;6.26;58.64;99608.05;1643183;85;21021;-62
2023/04/11 01:56:19;;;;;;;9.00;6.50;;;;;;;6.30;58.85;99609.63;1638639;85;21021;-64
2023/04/11 01:58:45;;;;;;;9.27;6.23;;;;;;;6.35;58.81;99605.15;1643511;85;21037;-62
2023/04/11 02:01:19;;;;;;;10.82;6.45;;;;;;;6.34;58.73;99595.69;1643220;85;21132;-63
2023/04/11 02:03:42;;;;;;;8.03;6.40;;;;;;;6.34;58.77;99598.28;1643818;85;20995;-62
2023/04/11 02:06:09;;;;;;;12.55;6.87;;;;;;;6.36;58.83;99590.44;1651102;85;21049;-61
2023/04/11 02:08:35;;;;;;;8.08;5.65;;;;;;;6.35;58.83;99589.59;1642170;85;20998;-62
2023/04/11 02:11:01;;;;;;;10.05;6.72;;;;;;;6.36;58.89;99583.53;1643290;85;20995;-65
2023/04/11 02:13:28;;;;;;;10.90;7.25;;;;;;;6.37;58.97;99578.73;1645761;85;21018;-62
2023/04/11 02:15:54;;;;;;;10.95;7.17;;;;;;;6.42;59.25;99583.32;1645868;85;21010;-65
2023/04/11 02:18:21;;;;;;;11.28;7.20;;;;;;;6.43;59.75;99579.81;1643273;85;20977;-62
2023/04/11 02:20:49;;;;;;;9.95;7.25;;;;;;;6.43;59.69;99583.70;1640334;85;21030;-63
2023/04/11 02:23:15;;;;;;;9.50;7.50;;;;;;;6.43;59.85;99572.03;1642277;85;21006;-62
2023/04/11 02:25:42;;;;;;;10.25;6.83;;;;;;;6.45;59.70;99565.06;1638361;87;21071;-62
2023/04/11 02:28:09;;;;;;;13.75;6.95;;;;;;;6.47;59.85;99556.79;1646091;85;21093;-61
2023/04/11 02:30:35;;;;;;;10.20;7.33;;;;;;;6.50;59.62;99554.09;1641950;85;21049;-62
2023/04/11 02:33:01;;;;;;;13.75;7.83;;;;;;;6.53;60.01;99551.01;1643077;85;21033;-62
2023/04/11 02:35:28;;;;;;;12.93;8.23;;;;;;;6.52;59.97;99546.70;1642752;85;21042;-65
2023/04/11 02:37:54;;;;;;;11.33;7.15;;;;;;;6.52;60.23;99541.52;1637894;85;20993;-61
2023/04/11 02:40:20;;;;;;;13.18;7.92;;;;;;;6.49;60.64;99535.52;1643037;85;21047;-62
2023/04/11 02:42:46;;;;;;;13.32;8.30;;;;;;;6.48;60.76;99531.24;1643669;85;21493;-62
2023/04/11 02:45:12;;;;;;;12.63;8.18;;;;;;;6.47;61.36;99530.86;1642308;85;21584;-62
2023/04/11 02:47:39;;;;;;;14.50;9.00;;;;;;;6.46;60.54;99529.14;1638153;85;21594;-61
2023/04/11 02:50:06;;;;;;;11.63;7.50;;;;;;;6.45;60.59;99526.16;1646328;85;21494;-62
2023/04/11 02:52:33;;;;;;;14.50;7.50;;;;;;;6.44;60.53;99523.60;1645384;85;20983;-62
2023/04/11 02:54:59;;;;;;;12.20;8.25;;;;;;;6.43;60.61;99520.17;1643627;85;20998;-62
2023/04/11 02:57:25;;;;;;;11.50;7.58;;;;;;;6.43;60.81;99520.17;1646101;85;21034;-62
2023/04/11 02:59:52;;;;;;;14.78;7.40;;;;;;;6.44;60.86;99517.99;1642749;85;21185;-62
2023/04/11 03:02:18;;;;;;;12.43;7.92;;;;;;;6.46;61.09;99510.98;1641080;85;21010;-64
2023/04/11 03:04:45;;;;;;;11.48;7.47;;;;;;;6.49;61.13;99512.63;1644147;85;21063;-62
2023/04/11 03:07:11;;;;;;;14.75;8.85;;;;;;;6.50;61.20;99511.30;1637709;85;21030;-62
2023/04/11 03:09:38;;;;;;;13.32;7.90;;;;;;;6.52;61.21;99506.49;1639206;85;20990;-62
2023/04/11 03:12:05;;;;;;;14.55;8.95;;;;;;;6.53;61.22;99499.13;1639208;85;21055;-66
2023/04/11 03:14:31;;;;;;;14.20;9.20;;;;;;;6.52;61.45;99496.12;1643759;85;21083;-63
2023/04/11 03:16:57;;;;;;;13.00;9.50;;;;;;;6.53;61.50;99494.78;1650627;85;21224;-61
2023/04/11 03:19:23;;;;;;;9.58;7.60;;;;;;;6.54;61.72;99490.44;1644330;85;20979;-62
2023/04/11 03:21:49;;;;;;;14.47;8.95;;;;;;;6.53;62.18;99483.56;1638145;84;21124;-62
2023/04/11 03:24:16;;;;;;;14.15;9.38;;;;;;;6.53;62.01;99488.75;1645455;85;21040;-62
2023/04/11 03:26:43;;;;;;;13.38;10.43;;;;;;;6.53;62.10;99479.22;1644515;85;20951;-63
2023/04/11 03:29:09;;;;;;;13.87;9.43;;;;;;;6.55;62.14;99479.98;1643180;85;21038;-63
2023/04/11 03:31:36;;;;;;;11.53;8.80;;;;;;;6.58;62.25;99476.45;1611868;87;21038;-62
2023/04/11 03:34:03;;;;;;;12.35;9.15;;;;;;;6.59;62.83;99469.08;1613945;87;21581;-63
2023/04/11 03:36:31;;;;;;;22.52;9.40;;;;;;;6.61;62.93;99468.55;1616061;87;20983;-62
2023/04/11 03:38:57;;;;;;;20.23;10.60;;;;;;;6.65;63.40;99470.16;1617010;87;21006;-62
2023/04/11 03:41:23;;;;;;;14.28;10.00;;;;;;;6.70;63.23;99463.06;1614266;87;20999;-65
2023/04/11 03:43:49;;;;;;;15.78;11.43;;;;;;;6.78;64.31;99461.05;1615600;87;21086;-63
2023/04/11 03:46:21;;;;;;;17.30;11.03;;;;;;;6.86;64.31;99459.02;1616158;87;20983;-61
2023/04/11 03:48:45;;;;;;;19.30;11.00;;;;;;;6.93;64.59;99444.90;1616847;87;21038;-63
2023/04/11 03:51:12;;;;;;;18.30;11.90;;;;;;;7.00;65.45;99443.38;1613836;88;21011;-62
2023/04/11 03:53:38;;;;;;;17.10;10.98;;;;;;;7.07;67.02;99438.36;1613812;87;20988;-66
2023/04/11 03:56:06;;;;;;;16.95;11.33;;;;;;;7.12;66.38;99436.44;1612910;87;21161;-65
2023/04/11 03:58:31;;;;;;;;;;;;;;;7.15;66.27;99436.32;1615008;87;21082;-62
2023/04/11 04:00:58;;;;;;;17.17;11.30;;;;;;;7.20;66.40;99429.21;1617755;87;20235;-62
2023/04/11 04:03:24;;;;;;;16.15;12.45;;;;;;;7.23;66.41;99429.09;1613461;87;21090;-62
2023/04/11 04:05:50;;;;;;;16.20;11.88;;;;;;;7.29;65.71;99420.22;1613323;87;21052;-62
2023/04/11 04:08:18;;;;;;;16.93;11.73;;;;;;;7.32;66.13;99415.74;1610809;87;20983;-62
2023/04/11 04:10:51;;;;;;;15.95;12.13;;;;;;;7.36;66.01;99416.00;1611909;87;21060;-62
2023/04/11 04:13:25;;;;;;;17.77;12.63;;;;;;;7.40;66.79;99402.47;1611431;87;21081;-63
2023/04/11 04:15:51;;;;;;;16.97;11.80;;;;;;;7.43;66.39;99400.20;1609702;87;21062;-62
2023/04/11 04:18:17;;;;;;;16.48;12.85;;;;;;;7.47;66.42;99397.41;1610617;87;21023;-62
2023/04/11 04:20:43;;;;;;;22.52;15.15;;;;;;;7.53;66.95;99389.81;1617917;87;21070;-62
2023/04/11 04:23:12;;;;;;;29.77;15.72;;;;;;;7.60;66.54;99383.48;1609855;87;21533;-62
2023/04/11 04:25:41;;;;;;;21.77;13.32;;;;;;;7.68;67.56;99390.52;1605848;88;21025;-62
2023/04/11 04:28:08;;;;;;;21.35;13.93;;;;;;;7.75;66.47;99392.40;1618051;87;21010;-65
2023/04/11 04:30:36;;;;;;;18.07;13.25;;;;;;;7.82;66.87;99389.49;1628003;86;21493;-62
2023/04/11 04:33:03;;;;;;;24.50;13.75;;;;;;;7.88;66.90;99390.99;1617378;87;21483;-62
2023/04/11 04:35:29;;;;;;;17.77;12.35;;;;;;;7.92;66.66;99391.70;1644723;85;21062;-65
2023/04/11 04:37:56;;;;;;;19.17;13.18;;;;;;;7.98;66.30;99378.44;1642818;85;21076;-65
2023/04/11 04:40:22;;;;;;;16.42;11.95;;;;;;;8.06;66.42;99378.97;1643738;85;21080;-62
2023/04/11 04:42:57;;;;;;;18.98;12.53;;;;;;;8.15;66.58;99378.59;1643573;85;21030;-62
2023/04/11 04:45:19;;;;;;;21.85;13.08;;;;;;;8.25;67.21;99379.03;1639922;85;21514;-63
2023/04/11 04:47:45;;;;;;;21.07;11.50;;;;;;;8.34;66.70;99375.19;1645552;85;21063;-63
2023/04/11 04:50:11;;;;;;;20.02;12.18;;;;;;;8.40;66.44;99373.20;1643753;85;21101;-63
2023/04/11 04:52:37;;;;;;;18.87;12.60;;;;;;;8.51;66.20;99363.60;1648285;85;21546;-63
2023/04/11 04:55:06;;;;;;;18.85;12.58;;;;;;;8.64;66.48;99362.15;1648709;85;21070;-64
2023/04/11 04:57:32;;;;;;;18.98;13.30;;;;;;;8.76;66.12;99354.70;1645336;85;21030;-62
2023/04/11 04:59:58;;;;;;;16.73;12.47;;;;;;;8.85;66.33;99352.97;1648314;85;21031;-62
2023/04/11 05:02:25;;;;;;;16.40;12.43;;;;;;;8.93;66.46;99345.65;1641624;85;21059;-62
2023/04/11 05:04:53;;;;;;;18.82;12.13;;;;;;;9.03;66.18;99344.31;1645121;85;21089;-62
2023/04/11 05:07:20;;;;;;;17.00;11.78;;;;;;;9.16;66.45;99340.22;1642093;85;20981;-61
2023/04/11 05:09:47;;;;;;;16.80;10.95;;;;;;;9.27;66.87;99340.15;1647602;85;21402;-62
2023/04/11 05:12:15;;;;;;;17.27;11.63;;;;;;;9.44;66.57;99336.30;1642500;85;21034;-64
2023/04/11 05:14:46;;;;;;;20.57;11.40;;;;;;;9.44;66.57;99336.30;1647356;85;21559;-63
2023/04/11 05:17:15;;;;;;;17.05;11.25;;;;;;;9.51;67.02;99337.66;1645958;85;21109;-63
2023/04/11 05:19:41;;;;;;;18.87;12.37;;;;;;;9.56;67.20;99334.38;1643755;85;20975;-66
2023/04/11 05:22:07;;;;;;;15.38;10.82;;;;;;;9.64;66.47;99330.94;1645913;85;21095;-62
2023/04/11 05:24:34;;;;;;;15.08;10.53;;;;;;;9.76;66.40;99333.85;1646510;85;21032;-62
2023/04/11 05:27:03;;;;;;;14.07;9.75;;;;;;;9.84;66.58;99324.72;1642620;85;21030;-62
2023/04/11 05:29:29;;;;;;;14.73;10.63;;;;;;;9.87;66.13;99326.33;1640433;85;21032;-62
2023/04/11 05:31:57;;;;;;;15.65;10.70;;;;;;;9.93;66.38;99328.63;1647765;85;21149;-62
2023/04/11 05:34:24;;;;;;;12.35;9.28;;;;;;;9.95;66.28;99322.87;1646956;85;21042;-63
2023/04/11 05:36:55;;;;;;;15.25;12.03;;;;;;;10.00;66.17;99316.97;1620081;85;22480;-60
2023/04/11 05:39:21;;;;;;;13.93;9.60;;;;;;;10.08;66.27;99327.85;1645019;85;20995;-59
2023/04/11 05:41:49;;;;;;;17.77;12.70;;;;;;;10.18;66.14;99316.94;1650171;85;21581;-59
2023/04/11 05:44:16;;;;;;;16.35;10.00;;;;;;;10.24;65.98;99307.48;1654113;85;21599;-59
2023/04/11 05:46:45;;;;;;;16.25;11.20;;;;;;;10.25;65.94;99316.55;1646603;85;21592;-58
2023/04/11 05:49:11;;;;;;;24.47;10.13;;;;;;;10.18;65.77;99285.63;1636914;86;20988;-58
2023/04/11 05:51:40;;;;;;;15.32;9.78;;;;;;;10.33;65.85;99305.71;1640131;86;21104;-59
2023/04/11 05:54:06;;;;;;;15.18;9.73;;;;;;;10.34;65.75;99299.59;1636422;86;21097;-59
2023/04/11 05:56:32;;;;;;;14.05;10.58;;;;;;;10.39;65.83;99296.28;1640136;85;20957;-59
2023/04/11 05:58:59;;;;;;;13.55;9.18;;;;;;;10.44;65.87;99290.33;1649618;85;21037;-59
2023/04/11 06:01:25;;;;;;;14.73;9.78;;;;;;;10.47;65.67;99290.19;1647477;85;21082;-59
2023/04/11 06:03:51;;;;;;;10.75;9.65;;;;;;;10.47;65.64;99274.53;1646028;85;21502;-58
2023/04/11 06:06:17;;;;;;;12.82;10.00;;;;;;;10.51;65.57;99272.58;1643628;85;20993;-59
2023/04/11 06:08:44;;;;;;;21.48;13.95;;;;;;;10.53;65.83;99274.19;1641976;85;21070;-59
2023/04/11 06:11:10;;;;;;;15.23;12.07;;;;;;;10.52;65.52;99269.87;1645908;85;20944;-59
2023/04/11 06:13:36;;;;;;;17.33;11.43;;;;;;;10.54;65.93;99261.97;1646975;85;21021;-60
2023/04/11 06:16:05;;;;;;;17.82;11.10;;;;;;;10.61;65.83;99257.25;1646407;84;20982;-59
2023/04/11 06:18:31;;;;;;;17.02;11.25;;;;;;;10.66;65.85;99258.68;1647187;85;21493;-59
2023/04/11 06:20:57;;;;;;;16.23;11.33;;;;;;;10.75;65.70;99252.11;1650286;85;21458;-60
2023/04/11 06:23:25;;;;;;;19.87;12.05;;;;;;;10.78;65.67;99246.71;1641232;85;20981;-59
2023/04/11 06:25:58;;;;;;;17.17;11.65;;;;;;;10.89;65.67;99245.64;1648119;85;21065;-58
2023/04/11 06:28:25;;;;;;;14.98;10.20;;;;;;;11.06;65.64;99241.24;1647060;85;21035;-59
2023/04/11 06:30:52;;;;;;;18.20;11.18;;;;;;;11.45;65.58;99234.66;1643041;85;21608;-58
2023/04/11 06:33:18;;;;;;;21.62;10.30;;;;;;;11.45;65.58;99234.66;1644174;85;21041;-58
2023/04/11 06:35:45;;;;;;;15.85;9.85;;;;;;;11.69;65.37;99231.91;1647728;85;21056;-58
2023/04/11 06:38:15;;;;;;;13.22;10.10;;;;;;;11.92;65.20;99236.25;1642516;84;21355;-59
2023/04/11 06:40:39;;;;;;;13.70;10.13;;;;;;;12.12;64.96;99229.33;1646375;85;21070;-58
2023/04/11 06:43:06;;;;;;;14.18;10.13;;;;;;;12.38;64.81;99229.48;1646620;85;21082;-58
2023/04/11 06:45:41;;;;;;;14.43;9.70;;;;;;;12.57;64.28;99221.32;1622858;85;21011;-58
2023/04/11 06:48:08;;;;;;;12.28;8.95;;;;;;;12.76;64.74;99211.35;1643993;85;21070;-58
2023/04/11 06:50:37;;;;;;;11.70;8.50;;;;;;;12.97;64.01;99214.38;1647337;85;21046;-57
2023/04/11 06:53:05;;;;;;;16.40;11.03;;;;;;;13.16;63.56;99206.98;1642455;85;21038;-58
2023/04/11 06:55:33;;;;;;;10.90;8.93;;;;;;;13.40;63.63;99201.07;1643214;85;21569;-59
2023/04/11 06:58:00;;;;;;;18.87;16.12;;;;;;;13.65;63.48;99205.50;1645809;85;21814;-60
2023/04/11 07:00:34;;;;;;;12.73;9.45;;;;;;;14.06;63.17;99193.95;1641251;85;20990;-61
2023/04/11 07:03:06;;;;;;;24.57;19.82;;;;;;;14.36;62.67;99183.03;1644028;85;21526;-60
2023/04/11 07:05:34;;;;;;;11.12;8.80;;;;;;;14.74;61.38;99182.10;1642937;85;21022;-59
2023/04/11 07:08:00;;;;;;;13.25;8.15;;;;;;;15.18;60.99;99183.25;1637120;86;21635;-58
2023/04/11 07:10:26;;;;;;;11.38;8.35;;;;;;;15.62;60.94;99179.02;1627814;86;21034;-58
2023/04/11 07:12:55;;;;;;;13.68;8.78;;;;;;;16.11;60.19;99180.52;1628398;85;21029;-59
2023/04/11 07:15:26;;;;;;;9.58;7.65;;;;;;;16.55;60.63;99178.75;1628452;86;21082;-59
2023/04/11 07:17:50;;;;;;;13.30;8.40;;;;;;;17.18;59.82;99165.23;1634358;86;21082;-59
2023/04/11 07:20:17;;;;;;;10.93;8.40;;;;;;;17.65;58.97;99166.99;1643494;85;20999;-59
2023/04/11 07:22:48;;;;;;;15.90;7.72;;;;;;;17.94;55.58;99161.03;1640154;85;21111;-58
2023/04/11 07:25:16;;;;;;;20.12;8.20;;;;;;;18.05;57.24;99163.58;1616932;86;20995;-58
2023/04/11 07:27:45;;;;;;;9.75;6.22;;;;;;;18.06;55.65;99163.95;1648386;85;21558;-59
2023/04/11 07:30:14;;;;;;;9.55;7.25;;;;;;;18.25;58.05;99166.28;1647902;85;21038;-59
2023/04/11 07:32:48;;;;;;;16.00;8.50;;;;;;;18.60;55.94;99168.91;1642653;85;21046;-59
2023/04/11 07:35:11;;;;;;;13.70;6.90;;;;;;;18.84;55.12;99156.17;1649375;85;21023;-59
2023/04/11 07:37:38;;;;;;;9.60;6.45;;;;;;;18.86;54.15;99160.84;1646498;85;20987;-59
2023/04/11 07:40:12;;;;;;;119.95;64.72;;;;;;;18.38;51.92;99152.84;1644947;85;21094;-59
2023/04/11 07:42:35;;;;;;;10.80;7.67;;;;;;;18.23;53.07;99157.65;1642194;85;21162;-59
2023/04/11 07:45:03;;;;;;;41.47;37.40;;;;;;;18.27;52.22;99151.14;1641272;86;21002;-59
2023/04/11 07:47:31;;;;;;;27.52;25.10;;;;;;;18.41;52.73;99150.75;1641637;85;21041;-59
2023/04/11 07:49:57;;;;;;;12.93;10.93;;;;;;;18.54;52.01;99146.05;1645048;85;21026;-58
2023/04/11 07:52:25;;;;;;;15.88;7.85;;;;;;;18.67;46.59;99152.87;1626991;86;21653;-60
2023/04/11 07:55:00;;;;;;;7.25;5.58;;;;;;;18.72;49.93;99148.00;1604519;87;21061;-59
2023/04/11 07:57:24;;;;;;;8.13;5.60;;;;;;;18.87;46.48;99142.67;1641307;85;22567;-59
2023/04/11 07:59:55;;;;;;;5.85;4.25;;;;;;;18.84;47.05;99136.34;1642938;85;21030;-59
2023/04/11 08:02:19;;;;;;;7.70;4.17;;;;;;;18.95;46.47;99144.12;1645284;85;21585;-60
2023/04/11 08:04:49;;;;;;;8.38;4.12;;;;;;;18.91;46.52;99129.53;1641577;85;21541;-58
2023/04/11 08:07:18;;;;;;;8.23;3.83;;;;;;;19.10;44.92;99137.08;1615111;85;20987;-60
2023/04/11 08:09:44;;;;;;;7.33;4.22;;;;;;;19.33;47.56;99118.60;1639773;85;21062;-59
2023/04/11 08:12:11;;;;;;;5.60;4.03;;;;;;;19.45;46.37;99121.41;1642553;85;21113;-59
2023/04/11 08:14:37;;;;;;;7.90;4.67;;;;;;;19.75;47.83;99115.58;1643601;85;21031;-59
2023/04/11 08:17:03;;;;;;;5.70;4.17;;;;;;;19.53;46.32;99114.09;1644223;85;21061;-59
2023/04/11 08:19:30;;;;;;;19.82;5.10;;;;;;;19.01;43.68;99127.69;1644716;85;21029;-59
2023/04/11 08:21:56;;;;;;;;;;;;;;;18.49;45.77;99108.61;1644210;85;21037;-61
2023/04/11 08:24:23;;;;;;;9.60;4.30;;;;;;;18.24;46.37;99103.85;1642326;85;20174;-59
2023/04/11 08:26:49;;;;;;;6.50;4.47;;;;;;;18.11;45.75;99102.27;1645691;85;21550;-59
2023/04/11 08:29:15;;;;;;;8.43;4.40;;;;;;;17.92;45.49;99106.18;1641060;85;21545;-61
2023/04/11 08:31:43;;;;;;;8.08;4.90;;;;;;;17.82;45.54;99101.37;1640151;85;21645;-63
2023/04/11 08:34:10;;;;;;;10.65;4.12;;;;;;;17.83;45.76;99095.94;1645454;85;21526;-58
2023/04/11 08:36:47;;;;;;;;;;;;;;;17.83;45.36;99106.50;1645241;85;21054;-58
2023/04/11 08:39:20;;;;;;;5.85;4.10;;;;;;;17.73;45.23;99092.88;1630148;85;20155;-59
2023/04/11 08:41:52;;;;;;;5.60;3.83;;;;;;;17.68;45.27;99084.89;1634492;84;21870;-59
2023/04/11 08:44:20;;;;;;;3.65;3.25;;;;;;;17.85;45.07;99092.69;1623327;85;21046;-59
2023/04/11 08:46:50;;;;;;;8.80;4.10;;;;;;;18.14;43.91;99086.64;1649814;85;20935;-60
2023/04/11 08:49:17;;;;;;;6.58;3.77;;;;;;;18.63;45.06;99080.09;1638074;85;20974;-60
2023/04/11 08:51:43;;;;;;;7.17;3.83;;;;;;;18.94;43.98;99081.63;1638890;85;21029;-59
2023/04/11 08:54:11;;;;;;;12.18;4.30;;;;;;;19.22;44.17;99087.02;1646490;85;20975;-59
2023/04/11 08:56:39;;;;;;;;;;;;;;;19.58;42.93;99071.30;1643921;85;21047;-59
2023/04/11 08:59:05;;;;;;;7.87;4.03;;;;;;;20.13;42.09;99062.02;1646638;85;20153;-60
2023/04/11 09:01:32;;;;;;;5.62;3.92;;;;;;;20.60;41.67;99055.22;1647133;85;21553;-59
2023/04/11 09:04:00;;;;;;;5.85;4.50;;;;;;;21.13;39.80;99062.25;1644037;85;21022;-58
2023/04/11 09:06:29;;;;;;;6.15;4.85;;;;;;;21.35;38.45;99065.38;1622503;85;21054;-59
2023/04/11 09:09:08;;;;;;;7.30;4.10;;;;;;;21.40;40.84;99051.16;1641672;85;21477;-59
2023/04/11 09:11:52;;;;;;;12.68;5.33;;;;;;;21.70;40.66;99042.31;1645564;85;21025;-59
2023/04/11 09:14:22;;;;;;;6.22;3.65;;;;;;;22.31;39.13;99035.86;1639282;85;21511;-59
2023/04/11 09:17:00;;;;;;;7.35;4.40;;;;;;;22.22;37.62;99031.53;1642856;85;21035;-59
2023/04/11 09:19:34;;;;;;;9.95;3.90;;;;;;;21.95;38.30;99029.44;1645310;85;21541;-59
2023/04/11 09:22:04;;;;;;;10.58;4.42;;;;;;;21.75;38.79;99026.73;1641972;85;20984;-64
2023/04/11 09:24:31;;;;;;;7.10;4.03;;;;;;;21.78;38.15;99015.78;1640546;85;21466;-60
2023/04/11 09:27:10;;;;;;;7.33;3.30;;;;;;;22.00;39.16;99028.46;1642955;85;25439;-59
2023/04/11 09:29:38;;;;;;;4.15;3.42;;;;;;;22.24;38.19;99008.28;1644022;85;21565;-58
2023/04/11 09:32:05;;;;;;;9.68;3.80;;;;;;;22.83;37.40;99000.95;1642313;85;21482;-59
2023/04/11 09:34:39;;;;;;;21.68;4.10;;;;;;;22.86;36.60;98992.63;1637634;85;21704;-57
2023/04/11 09:37:04;;;;;;;5.92;2.92;;;;;;;23.05;36.53;99001.25;1634289;85;21497;-63
2023/04/11 09:39:32;;;;;;;5.87;3.70;;;;;;;23.08;36.19;98994.25;1637456;85;21514;-59
2023/04/11 09:41:59;;;;;;;6.97;3.22;;;;;;;22.95;36.62;98999.62;1633881;85;21072;-58
2023/04/11 09:44:37;;;;;;;13.25;3.60;;;;;;;22.31;34.38;99011.92;1636937;85;21141;-63
2023/04/11 09:47:03;;;;;;;17.00;3.90;;;;;;;21.73;35.96;98987.52;1636502;85;21000;-57
2023/04/11 09:49:30;;;;;;;7.97;3.52;;;;;;;21.82;35.81;98993.22;1639012;85;21095;-61
2023/04/11 09:51:58;;;;;;;7.58;3.30;;;;;;;21.52;35.06;98996.77;1640641;85;20977;-56
2023/04/11 09:54:27;;;;;;;9.43;3.72;;;;;;;21.12;35.92;98982.28;1636216;85;21056;-57
2023/04/11 09:56:53;;;;;;;17.85;4.00;;;;;;;21.03;36.15;98976.58;1633160;85;21042;-57
2023/04/11 09:59:21;;;;;;;12.50;3.77;;;;;;;20.96;36.78;98964.94;1635258;85;21057;-58
2023/04/11 10:01:50;;;;;;;23.12;5.28;;;;;;;21.22;37.28;98965.72;1634840;85;21495;-58
2023/04/11 10:04:19;;;;;;;5.90;3.12;;;;;;;21.14;35.91;98964.86;1637751;85;21085;-57
2023/04/11 10:06:58;;;;;;;5.05;3.45;;;;;;;20.62;35.32;98992.25;1635630;85;21052;-58
2023/04/11 10:09:26;;;;;;;5.37;3.40;;;;;;;20.14;36.97;98968.30;1631403;85;21137;-58
2023/04/11 10:11:55;;;;;;;9.40;3.70;;;;;;;20.29;37.42;98954.83;1621257;85;21059;-57
2023/04/11 10:14:41;;;;;;;7.85;3.42;;;;;;;20.44;36.91;98959.58;1637568;85;22263;-58
2023/04/11 10:17:16;;;;;;;5.47;3.40;;;;;;;20.60;36.76;98951.78;1639313;85;21089;-58
2023/04/11 10:19:47;;;;;;;10.40;3.92;;;;;;;20.70;36.53;98960.48;1637983;85;21502;-60
2023/04/11 10:22:43;;;;;;;7.65;3.47;;;;;;;21.05;36.44;98956.02;1641806;85;21054;-59
2023/04/11 10:25:22;;;;;;;7.05;3.75;;;;;;;21.52;35.97;98950.28;1645997;85;21054;-58
2023/04/11 10:27:49;;;;;;;6.37;3.98;;;;;;;21.67;35.11;98935.37;1571157;87;49320;-58
2023/04/11 10:30:18;;;;;;;9.13;3.98;;;;;;;21.25;35.40;98951.30;1604682;87;21136;-57
2023/04/11 10:33:17;;;;;;;5.65;3.52;;;;;;;20.68;35.13;98946.53;1570433;89;21120;-58
2023/04/11 10:35:57;;;;;;;6.40;3.00;;;;;;;19.87;36.18;98941.37;1566370;90;21164;-57
2023/04/11 10:38:48;;;;;;;5.67;3.30;;;;;;;19.16;36.85;98928.81;1564967;90;21041;-59
2023/04/11 10:41:31;;;;;;;16.57;3.70;;;;;;;18.75;37.29;98940.16;1566802;88;21077;-57
2023/04/11 10:44:16;;;;;;;9.93;3.98;;;;;;;18.92;37.72;98927.50;1589346;87;21597;-58
2023/04/11 10:46:45;;;;;;;5.75;3.25;;;;;;;19.18;37.52;98926.84;1590625;88;22259;-58
2023/04/11 10:49:12;;;;;;;15.75;4.28;;;;;;;19.66;37.40;98910.72;1594315;88;21098;-58
2023/04/11 10:51:42;;;;;;;4.72;3.05;;;;;;;20.30;36.36;98914.06;1573371;88;21249;-58
2023/04/11 10:54:22;;;;;;;5.58;3.35;;;;;;;20.94;36.99;98901.40;1587982;88;21638;-57
2023/04/11 10:56:52;;;;;;;3.80;3.00;;;;;;;21.69;36.50;98899.35;1592315;88;21012;-58
2023/04/11 10:59:38;;;;;;;4.92;3.15;;;;;;;21.93;34.81;98899.89;1593179;88;21004;-58
2023/04/11 11:02:02;;;;;;;4.83;3.20;;;;;;;21.81;35.43;98893.22;1591065;88;21058;-57
2023/04/11 11:04:37;;;;;;;5.03;3.22;;;;;;;21.55;35.75;98878.75;1592954;88;21106;-57
2023/04/11 11:07:06;;;;;;;4.72;3.40;;;;;;;21.14;35.36;98887.87;1591483;88;21122;-57
2023/04/11 11:09:34;;;;;;;7.70;3.98;;;;;;;20.38;35.60;98896.07;1592932;88;21068;-57
2023/04/11 11:12:14;;;;;;;11.65;3.52;;;;;;;19.99;35.82;98911.00;1592627;88;21099;-57
2023/04/11 11:14:43;;;;;;;5.97;3.85;;;;;;;19.69;36.10;98898.99;1594980;88;21026;-57
2023/04/11 11:17:15;;;;;;;10.08;3.70;;;;;;;19.86;36.32;98894.68;1596023;88;21064;-58
2023/04/11 11:19:46;;;;;;;5.28;3.50;;;;;;;20.25;36.07;98879.27;1592956;88;21027;-59
2023/04/11 11:22:24;;;;;;;13.58;4.40;;;;;;;20.83;35.92;98882.28;1592207;88;21637;-59
2023/04/11 11:24:46;;;;;;;5.47;3.95;;;;;;;21.22;35.83;98877.30;1592107;88;21065;-59
2023/04/11 11:27:24;;;;;;;6.83;3.47;;;;;;;21.67;34.67;98873.44;1623883;85;46352;-58
2023/04/11 11:29:50;;;;;;;5.65;3.70;;;;;;;21.62;33.84;98889.03;1645149;85;21000;-59
2023/04/11 11:32:31;;;;;;;;;;;;;;;20.76;34.07;98884.24;1642491;85;21087;-59
2023/04/11 11:34:59;;;;;;;4.92;3.25;;;;;;;19.85;34.85;98869.98;1639056;86;20176;-60
2023/04/11 11:37:25;;;;;;;6.67;3.65;;;;;;;19.51;35.69;98871.63;1646537;85;21492;-65